createdAt,value
2023-02-02T00:00:45.420Z,19.30
2023-02-02T00:02:46.911Z,21.00
2023-02-02T00:04:48.412Z,23.98
2023-02-02T00:06:50.266Z,17.98
2023-02-02T00:08:52.254Z,17.00
2023-02-02T00:10:53.704Z,17.65
2023-02-02T00:12:57.973Z,25.48
2023-02-02T00:14:59.550Z,21.70
2023-02-02T00:17:01.040Z,17.70
2023-02-02T00:19:10.337Z,18.90
2023-02-02T00:21:11.792Z,23.05
2023-02-02T00:23:13.227Z,19.15
2023-02-02T00:25:14.691Z,25.45
2023-02-02T00:27:16.153Z,13.25
2023-02-02T00:29:23.903Z,20.23
2023-02-02T00:31:25.478Z,15.25
2023-02-02T00:33:26.967Z,12.45
2023-02-02T00:35:28.446Z,24.58
2023-02-02T00:37:29.887Z,28.70
2023-02-02T00:39:31.365Z,21.60
2023-02-02T00:41:32.833Z,24.80
2023-02-02T00:43:34.627Z,20.80
2023-02-02T00:45:36.781Z,20.33
2023-02-02T00:47:38.246Z,17.13
2023-02-02T00:49:39.732Z,23.35
2023-02-02T00:51:41.207Z,19.35
2023-02-02T00:53:42.650Z,18.98
2023-02-02T00:55:44.380Z,23.60
2023-02-02T00:57:46.239Z,17.25
2023-02-02T00:59:47.669Z,21.48
2023-02-02T01:01:49.182Z,14.27
2023-02-02T01:03:50.799Z,13.82
2023-02-02T01:05:52.313Z,10.38
2023-02-02T01:07:53.790Z,20.35
2023-02-02T01:09:55.244Z,13.75
2023-02-02T01:11:57.254Z,13.38
2023-02-02T01:13:58.719Z,14.75
2023-02-02T01:16:02.037Z,20.17
2023-02-02T01:18:03.625Z,12.68
2023-02-02T01:20:07.006Z,15.00
2023-02-02T01:22:09.261Z,14.02
2023-02-02T01:24:10.683Z,14.95
2023-02-02T01:26:13.552Z,15.43
2023-02-02T01:28:15.010Z,12.23
2023-02-02T01:30:16.550Z,23.77
2023-02-02T01:32:18.078Z,23.20
2023-02-02T01:34:19.640Z,16.83
2023-02-02T01:36:23.214Z,15.88
2023-02-02T01:38:25.129Z,26.35
2023-02-02T01:40:26.672Z,18.98
2023-02-02T01:42:28.223Z,23.05
2023-02-02T01:44:53.211Z,19.83
2023-02-02T01:46:54.663Z,28.00
2023-02-02T01:49:11.110Z,19.55
2023-02-02T01:51:17.319Z,15.85
2023-02-02T01:53:19.966Z,22.98
2023-02-02T01:55:25.151Z,19.13
2023-02-02T01:57:42.271Z,17.17
2023-02-02T01:59:46.467Z,20.25
2023-02-02T02:01:49.216Z,25.80
2023-02-02T02:03:50.717Z,24.90
2023-02-02T02:06:00.489Z,18.70
2023-02-02T02:08:13.646Z,20.88
2023-02-02T02:10:17.638Z,26.15
2023-02-02T02:12:19.070Z,19.83
2023-02-02T02:14:40.284Z,22.90
2023-02-02T02:16:47.270Z,14.35
2023-02-02T02:18:57.107Z,16.17
2023-02-02T02:21:35.383Z,28.55
2023-02-02T02:24:31.733Z,26.02
2023-02-02T02:26:35.985Z,21.08
2023-02-02T02:29:04.980Z,20.02
2023-02-02T02:31:44.103Z,27.88
2023-02-02T02:34:09.662Z,16.88
2023-02-02T02:36:20.791Z,22.02
2023-02-02T02:38:47.775Z,21.35
2023-02-02T02:40:58.107Z,20.42
2023-02-02T02:43:05.281Z,13.80
2023-02-02T02:45:08.381Z,21.80
2023-02-02T02:47:10.613Z,13.85
2023-02-02T02:49:13.719Z,16.35
2023-02-02T02:51:40.033Z,21.00
2023-02-02T02:53:41.572Z,19.20
2023-02-02T02:55:53.423Z,25.00
2023-02-02T02:58:16.371Z,22.73
2023-02-02T03:00:32.419Z,16.90
2023-02-02T03:02:45.668Z,23.20
2023-02-02T03:05:02.875Z,23.58
2023-02-02T03:07:10.398Z,17.88
2023-02-02T03:09:18.136Z,17.77
2023-02-02T03:11:20.663Z,21.17
2023-02-02T03:13:22.510Z,13.38
2023-02-02T03:15:24.709Z,21.42
2023-02-02T03:17:28.072Z,23.73
2023-02-02T03:19:29.555Z,25.10
2023-02-02T03:21:32.232Z,24.70
2023-02-02T03:23:34.406Z,16.08
2023-02-02T03:25:35.987Z,19.00
2023-02-02T03:27:38.950Z,22.95
2023-02-02T03:29:40.405Z,15.80
2023-02-02T03:31:42.009Z,22.55
2023-02-02T03:33:43.744Z,27.85
2023-02-02T03:35:45.294Z,23.90
2023-02-02T03:37:47.511Z,20.13
2023-02-02T03:39:49.016Z,14.43
2023-02-02T03:41:50.462Z,28.75
2023-02-02T03:43:51.895Z,25.88
2023-02-02T03:46:01.765Z,29.48
2023-02-02T03:48:05.475Z,26.85
2023-02-02T03:50:09.832Z,18.85
2023-02-02T03:52:11.440Z,25.92
2023-02-02T03:54:13.862Z,23.35
2023-02-02T03:56:16.121Z,9.85
2023-02-02T03:58:17.680Z,17.92
2023-02-02T04:00:19.512Z,17.65
2023-02-02T04:02:21.007Z,23.10
2023-02-02T04:04:22.519Z,22.25
2023-02-02T04:06:24.733Z,17.85
2023-02-02T04:08:26.311Z,24.77
2023-02-02T04:10:27.826Z,23.90
2023-02-02T04:12:29.274Z,19.83
2023-02-02T04:14:30.752Z,20.27
2023-02-02T04:16:34.891Z,21.95
2023-02-02T04:18:39.241Z,25.17
2023-02-02T04:20:40.707Z,19.05
2023-02-02T04:22:42.168Z,26.17
2023-02-02T04:24:43.642Z,28.77
2023-02-02T04:26:45.522Z,20.33
2023-02-02T04:28:47.003Z,21.00
2023-02-02T04:30:48.445Z,27.50
2023-02-02T04:32:51.390Z,21.52
2023-02-02T04:34:52.872Z,23.83
2023-02-02T04:36:54.321Z,19.92
2023-02-02T04:38:55.929Z,26.17
2023-02-02T04:40:57.395Z,25.35
2023-02-02T04:42:58.883Z,26.80
2023-02-02T04:45:00.318Z,22.73
2023-02-02T04:47:01.790Z,13.55
2023-02-02T04:49:03.267Z,19.13
2023-02-02T04:51:07.204Z,25.40
2023-02-02T04:53:08.652Z,28.58
2023-02-02T04:55:10.115Z,26.08
2023-02-02T04:57:11.579Z,15.23
2023-02-02T04:59:13.058Z,28.05
2023-02-02T05:01:20.792Z,19.30
2023-02-02T05:03:22.292Z,26.75
2023-02-02T05:05:24.031Z,25.98
2023-02-02T05:07:25.663Z,27.52
2023-02-02T05:09:27.243Z,18.30
2023-02-02T05:11:28.733Z,21.40
2023-02-02T05:13:30.189Z,19.92
2023-02-02T05:15:31.641Z,28.55
2023-02-02T05:17:33.374Z,20.05
2023-02-02T05:19:34.884Z,26.77
2023-02-02T05:21:36.331Z,23.73
2023-02-02T05:23:37.797Z,16.85
2023-02-02T05:25:39.242Z,22.58
2023-02-02T05:27:44.111Z,19.02
2023-02-02T05:29:47.321Z,21.45
2023-02-02T05:31:48.810Z,26.38
2023-02-02T05:33:50.302Z,19.88
2023-02-02T05:35:52.793Z,24.27
2023-02-02T05:37:54.249Z,28.13
2023-02-02T05:39:55.747Z,23.80
2023-02-02T05:41:57.175Z,29.67
2023-02-02T05:44:02.168Z,32.30
2023-02-02T05:46:03.778Z,32.72
2023-02-02T05:48:05.432Z,21.95
2023-02-02T05:50:07.237Z,27.15
2023-02-02T05:52:16.091Z,29.05
2023-02-02T05:56:21.974Z,19.05
2023-02-02T05:58:23.737Z,25.75
2023-02-02T06:00:25.193Z,31.05
2023-02-02T06:02:26.756Z,22.80
2023-02-02T06:04:28.317Z,22.33
2023-02-02T06:06:29.752Z,28.48
2023-02-02T06:08:31.222Z,32.63
2023-02-02T06:10:32.700Z,32.03
2023-02-02T06:12:34.219Z,25.13
2023-02-02T06:14:35.876Z,25.42
2023-02-02T06:16:37.507Z,26.73
2023-02-02T06:18:39.105Z,19.70
2023-02-02T06:20:40.611Z,25.17
2023-02-02T06:22:43.832Z,21.67
2023-02-02T06:24:45.387Z,31.08
2023-02-02T06:26:46.895Z,29.27
2023-02-02T06:28:52.704Z,29.63
2023-02-02T06:30:54.278Z,33.80
2023-02-02T06:32:55.860Z,20.10
2023-02-02T06:34:57.323Z,18.02
2023-02-02T06:36:58.772Z,28.75
2023-02-02T06:39:00.325Z,23.02
2023-02-02T06:41:02.625Z,30.17
2023-02-02T06:43:04.302Z,24.75
2023-02-02T06:45:06.133Z,30.38
2023-02-02T06:47:07.648Z,22.35
2023-02-02T06:49:09.172Z,21.73
2023-02-02T06:51:10.649Z,25.02
2023-02-02T06:53:12.101Z,26.60
2023-02-02T06:55:13.674Z,24.35
2023-02-02T06:57:15.116Z,33.13
2023-02-02T06:59:16.615Z,33.50
2023-02-02T07:01:18.204Z,23.38
2023-02-02T07:03:21.444Z,24.83
2023-02-02T07:05:24.350Z,20.77
2023-02-02T07:07:26.114Z,24.63
2023-02-02T07:09:27.607Z,24.35
2023-02-02T07:11:29.609Z,21.75
2023-02-02T07:13:31.755Z,32.53
2023-02-02T07:15:34.336Z,29.70
2023-02-02T07:17:35.842Z,28.13
2023-02-02T07:19:37.354Z,28.42
2023-02-02T07:21:38.857Z,27.90
2023-02-02T07:23:40.341Z,22.10
2023-02-02T07:25:43.837Z,25.80
2023-02-02T07:27:47.808Z,24.58
2023-02-02T07:29:49.311Z,24.20
2023-02-02T07:31:51.291Z,26.60
2023-02-02T07:33:53.844Z,25.02
2023-02-02T07:35:55.370Z,22.75
2023-02-02T07:37:57.378Z,45.85
2023-02-02T07:39:58.888Z,25.17
2023-02-02T07:42:00.379Z,26.48
2023-02-02T07:44:01.965Z,37.67
2023-02-02T07:46:06.576Z,29.20
2023-02-02T07:48:08.113Z,22.85
2023-02-02T07:50:10.148Z,21.52
2023-02-02T07:52:11.659Z,30.20
2023-02-02T07:54:13.302Z,24.55
2023-02-02T07:56:17.243Z,28.45
2023-02-02T07:58:18.760Z,27.27
2023-02-02T08:00:20.779Z,17.25
2023-02-02T08:02:22.230Z,22.60
2023-02-02T08:04:23.695Z,26.48
2023-02-02T08:06:34.105Z,19.58
2023-02-02T08:08:35.591Z,23.15
2023-02-02T08:10:37.097Z,24.27
2023-02-02T08:12:38.579Z,21.20
2023-02-02T08:14:40.068Z,24.30
2023-02-02T08:16:41.580Z,29.02
2023-02-02T08:18:43.951Z,19.52
2023-02-02T08:20:45.487Z,27.30
2023-02-02T08:22:46.950Z,28.75
2023-02-02T08:24:48.490Z,37.03
2023-02-02T08:26:50.087Z,15.32
2023-02-02T08:29:03.969Z,25.35
2023-02-02T08:31:11.563Z,21.67
2023-02-02T08:33:13.549Z,20.98
2023-02-02T08:35:15.050Z,18.13
2023-02-02T08:37:16.515Z,22.17
2023-02-02T08:39:17.982Z,22.23
2023-02-02T08:41:22.683Z,28.08
2023-02-02T08:43:24.236Z,20.77
2023-02-02T08:46:03.874Z,19.65
2023-02-02T08:47:49.253Z,28.58
2023-02-02T08:49:55.341Z,24.15
2023-02-02T08:51:56.837Z,17.58
2023-02-02T08:53:58.339Z,34.08
2023-02-02T08:56:06.646Z,23.77
2023-02-02T08:58:08.171Z,21.15
2023-02-02T09:00:11.700Z,21.35
2023-02-02T09:02:13.878Z,31.92
2023-02-02T09:04:18.441Z,16.95
2023-02-02T09:06:21.211Z,18.27
2023-02-02T09:08:22.689Z,20.95
2023-02-02T09:10:24.179Z,23.75
2023-02-02T09:12:25.757Z,23.00
2023-02-02T09:14:27.400Z,18.73
2023-02-02T09:16:30.063Z,19.10
2023-02-02T09:18:31.693Z,17.60
2023-02-02T09:20:33.360Z,17.60
2023-02-02T09:22:34.991Z,18.48
2023-02-02T09:24:36.543Z,21.80
2023-02-02T09:26:40.558Z,18.88
2023-02-02T09:28:45.196Z,17.92
2023-02-02T09:30:46.676Z,18.50
2023-02-02T09:32:51.279Z,19.00
2023-02-02T09:34:52.765Z,19.50
2023-02-02T09:36:54.364Z,20.45
2023-02-02T09:38:55.933Z,21.25
2023-02-02T09:40:57.401Z,23.40
2023-02-02T09:43:18.030Z,16.77
2023-02-02T09:45:36.314Z,21.67
2023-02-02T09:48:20.203Z,22.23
2023-02-02T09:50:40.881Z,15.25
2023-02-02T09:53:08.027Z,17.38
2023-02-02T09:55:25.278Z,14.20
2023-02-02T09:57:36.701Z,20.15
2023-02-02T09:59:41.567Z,15.02
2023-02-02T10:01:45.144Z,17.08
2023-02-02T10:04:15.624Z,21.15
2023-02-02T10:06:35.724Z,15.75
2023-02-02T10:08:44.263Z,10.52
2023-02-02T10:10:47.119Z,12.88
2023-02-02T10:12:59.884Z,14.52
2023-02-02T10:15:17.840Z,19.08
2023-02-02T10:17:52.984Z,20.40
2023-02-02T10:20:01.119Z,13.35
2023-02-02T10:22:06.477Z,17.85
2023-02-02T10:24:17.782Z,14.85
2023-02-02T10:26:23.527Z,18.20
2023-02-02T10:28:33.882Z,15.18
2023-02-02T10:30:59.202Z,18.63
2023-02-02T10:33:06.930Z,17.83
2023-02-02T10:35:37.151Z,16.88
2023-02-02T10:38:07.436Z,14.55
2023-02-02T10:40:41.586Z,17.70
2023-02-02T10:43:20.191Z,11.20
2023-02-02T10:45:22.222Z,26.02
2023-02-02T10:47:27.964Z,16.02
2023-02-02T10:49:40.082Z,16.30
2023-02-02T10:51:50.324Z,13.02
2023-02-02T10:53:57.513Z,15.45
2023-02-02T10:56:06.935Z,16.25
2023-02-02T10:58:11.219Z,9.82
2023-02-02T11:00:39.092Z,10.82
2023-02-02T11:02:40.626Z,9.05
2023-02-02T11:05:00.565Z,11.98
2023-02-02T11:07:02.098Z,14.60
2023-02-02T11:09:04.988Z,20.42
2023-02-02T11:11:27.799Z,22.50
2023-02-02T11:13:37.102Z,14.45
2023-02-02T11:15:38.614Z,19.85
2023-02-02T11:17:40.196Z,17.00
2023-02-02T11:19:41.673Z,14.75
2023-02-02T11:21:47.626Z,16.88
2023-02-02T11:24:19.364Z,16.50
2023-02-02T11:26:22.932Z,14.43
2023-02-02T11:28:30.229Z,10.65
2023-02-02T11:30:35.827Z,15.10
2023-02-02T11:32:38.043Z,18.60
2023-02-02T11:34:39.535Z,13.00
2023-02-02T11:36:41.058Z,16.48
2023-02-02T11:38:42.525Z,16.08
2023-02-02T11:40:46.242Z,14.57
2023-02-02T11:42:48.397Z,17.85
2023-02-02T11:44:55.751Z,19.33
2023-02-02T11:46:57.505Z,23.17
2023-02-02T11:49:13.464Z,19.13
2023-02-02T11:51:23.607Z,17.38
2023-02-02T11:53:34.019Z,21.95
2023-02-02T11:55:35.688Z,14.10
2023-02-02T11:57:37.253Z,21.00
2023-02-02T11:59:43.769Z,18.15
2023-02-02T12:01:45.318Z,17.83
2023-02-02T12:03:48.613Z,16.98
2023-02-02T12:05:50.316Z,22.90
2023-02-02T12:07:51.826Z,20.83
2023-02-02T12:09:57.015Z,19.20
2023-02-02T12:12:07.516Z,16.98
2023-02-02T12:14:21.326Z,20.75
2023-02-02T12:16:37.616Z,18.02
2023-02-02T12:18:39.142Z,24.65
2023-02-02T12:21:02.624Z,24.13
2023-02-02T12:23:12.856Z,16.25
2023-02-02T12:25:14.278Z,14.32
2023-02-02T12:27:56.054Z,22.23
2023-02-02T12:30:08.808Z,11.45
2023-02-02T12:32:30.027Z,26.50
2023-02-02T12:35:05.551Z,17.25
2023-02-02T12:37:27.163Z,22.50
2023-02-02T12:39:52.705Z,24.98
2023-02-02T12:42:06.295Z,20.27
2023-02-02T12:45:04.176Z,18.88
2023-02-02T12:47:22.646Z,21.48
2023-02-02T12:49:42.366Z,25.40
2023-02-02T12:52:19.494Z,16.77
2023-02-02T12:54:54.534Z,17.15
2023-02-02T12:57:23.007Z,23.77
2023-02-02T12:59:57.864Z,19.83
2023-02-02T13:02:17.808Z,22.73
2023-02-02T13:04:26.982Z,13.68
2023-02-02T13:06:46.997Z,19.27
2023-02-02T13:08:58.671Z,15.02
2023-02-02T13:11:06.693Z,12.93
2023-02-02T13:13:16.906Z,16.35
2023-02-02T13:15:27.322Z,27.30
2023-02-02T13:17:46.632Z,14.23
2023-02-02T13:19:54.652Z,14.52
2023-02-02T13:21:59.420Z,17.42
2023-02-02T13:24:05.923Z,14.73
2023-02-02T13:26:15.771Z,21.08
2023-02-02T13:28:45.176Z,10.88
2023-02-02T13:30:49.928Z,18.05
2023-02-02T13:32:53.290Z,9.60
2023-02-02T13:35:17.844Z,22.42
2023-02-02T13:37:37.559Z,15.45
2023-02-02T13:39:45.950Z,13.40
2023-02-02T13:41:49.771Z,18.17
2023-02-02T13:44:04.938Z,15.30
2023-02-02T13:46:24.288Z,21.73
2023-02-02T13:48:31.513Z,16.80
2023-02-02T13:50:45.808Z,19.92
2023-02-02T13:52:54.916Z,25.35
2023-02-02T13:55:30.108Z,16.52
2023-02-02T13:57:59.268Z,15.60
2023-02-02T14:00:12.217Z,16.25
2023-02-02T14:02:28.442Z,10.80
2023-02-02T14:04:31.540Z,14.98
2023-02-02T14:06:56.251Z,14.93
2023-02-02T14:09:04.626Z,13.90
2023-02-02T14:11:08.123Z,19.23
2023-02-02T14:13:32.527Z,16.52
2023-02-02T14:15:39.400Z,12.27
2023-02-02T14:17:41.064Z,9.35
2023-02-02T14:19:56.487Z,12.50
2023-02-02T14:21:59.261Z,15.45
2023-02-02T14:24:22.555Z,18.25
2023-02-02T14:26:40.950Z,8.75
2023-02-02T14:28:46.163Z,10.10
2023-02-02T14:31:25.532Z,6.88
2023-02-02T14:33:38.845Z,15.57
2023-02-02T14:35:46.087Z,16.48
2023-02-02T14:37:52.929Z,12.60
2023-02-02T14:40:29.890Z,16.63
2023-02-02T14:42:58.956Z,11.00
2023-02-02T14:45:22.480Z,19.27
2023-02-02T14:47:48.328Z,15.35
2023-02-02T14:49:50.410Z,11.52
2023-02-02T14:51:55.657Z,9.93
2023-02-02T14:54:01.227Z,6.30
2023-02-02T14:56:14.443Z,16.60
2023-02-02T14:58:31.058Z,16.50
2023-02-02T15:00:35.081Z,10.07
2023-02-02T15:02:38.121Z,9.57
2023-02-02T15:04:39.670Z,11.43
2023-02-02T15:06:43.071Z,11.25
2023-02-02T15:08:44.833Z,17.02
2023-02-02T15:10:53.747Z,15.60
2023-02-02T15:13:10.855Z,13.60
2023-02-02T15:15:25.586Z,14.30
2023-02-02T15:17:48.688Z,12.07
2023-02-02T15:20:05.482Z,17.05
2023-02-02T15:22:31.443Z,8.23
2023-02-02T15:24:36.181Z,13.68
2023-02-02T15:26:42.830Z,14.30
2023-02-02T15:28:53.146Z,13.52
2023-02-02T15:31:13.285Z,15.85
2023-02-02T15:33:30.602Z,10.65
2023-02-02T15:35:32.783Z,13.15
2023-02-02T15:37:41.738Z,8.25
2023-02-02T15:39:48.950Z,10.77
2023-02-02T15:42:11.790Z,9.20
2023-02-02T15:44:21.691Z,14.15
2023-02-02T15:46:32.297Z,10.25
2023-02-02T15:48:34.788Z,8.48
2023-02-02T15:50:37.460Z,9.48
2023-02-02T15:52:47.525Z,12.63
2023-02-02T15:54:57.545Z,11.52
2023-02-02T15:57:02.936Z,11.90
2023-02-02T15:59:19.910Z,14.07
2023-02-02T16:01:25.969Z,10.73
2023-02-02T16:03:38.387Z,14.90
2023-02-02T16:05:55.842Z,11.27
2023-02-02T16:08:06.057Z,11.68
2023-02-02T16:10:08.428Z,6.28
2023-02-02T16:12:22.033Z,6.85
2023-02-02T16:14:23.868Z,9.68
2023-02-02T16:16:29.008Z,13.68
2023-02-02T16:18:30.865Z,12.10
2023-02-02T16:20:35.142Z,6.05
2023-02-02T16:22:38.028Z,12.13
2023-02-02T16:24:44.074Z,9.98
2023-02-02T16:26:45.881Z,6.80
2023-02-02T16:28:47.440Z,5.13
2023-02-02T16:30:51.765Z,7.55
2023-02-02T16:32:53.658Z,12.15
2023-02-02T16:34:55.376Z,6.30
2023-02-02T16:37:22.272Z,6.78
2023-02-02T16:39:24.172Z,5.20
2023-02-02T16:41:34.311Z,4.63
2023-02-02T16:43:38.119Z,6.78
2023-02-02T16:45:55.358Z,8.48
2023-02-02T16:48:19.686Z,8.07
2023-02-02T16:50:29.787Z,6.75
2023-02-02T16:52:32.279Z,5.95
2023-02-02T16:54:34.111Z,8.65
2023-02-02T16:56:39.955Z,9.15
2023-02-02T16:58:45.536Z,6.10
2023-02-02T17:01:14.961Z,9.98
2023-02-02T17:03:18.182Z,5.15
2023-02-02T17:05:26.114Z,4.25
2023-02-02T17:07:29.653Z,6.85
2023-02-02T17:09:37.312Z,7.13
2023-02-02T17:11:38.810Z,11.75
2023-02-02T17:13:41.619Z,7.43
2023-02-02T17:15:43.087Z,6.97
2023-02-02T17:17:47.754Z,12.73
2023-02-02T17:19:49.680Z,5.38
2023-02-02T17:21:51.354Z,4.82
2023-02-02T17:23:56.295Z,7.70
2023-02-02T17:25:58.550Z,7.38
2023-02-02T17:28:00.803Z,10.52
2023-02-02T17:30:03.703Z,8.50
2023-02-02T17:32:05.562Z,12.13
2023-02-02T17:34:16.960Z,8.48
2023-02-02T17:36:18.431Z,8.13
2023-02-02T17:38:21.505Z,7.32
2023-02-02T17:40:24.307Z,11.95
2023-02-02T17:42:30.582Z,10.82
2023-02-02T17:44:32.087Z,8.55
2023-02-02T17:46:35.083Z,12.18
2023-02-02T17:48:37.187Z,11.35
2023-02-02T17:50:39.579Z,12.00
2023-02-02T17:52:41.338Z,8.65
2023-02-02T17:54:42.786Z,10.57
2023-02-02T17:56:44.367Z,9.35
2023-02-02T17:58:45.799Z,13.07
2023-02-02T18:00:53.792Z,8.20
2023-02-02T18:03:01.381Z,12.15
2023-02-02T18:05:04.772Z,10.95
2023-02-02T18:07:07.563Z,5.47
2023-02-02T18:09:09.659Z,7.95
2023-02-02T18:11:13.458Z,11.70
2023-02-02T18:13:16.806Z,7.10
2023-02-02T18:15:18.333Z,6.70
2023-02-02T18:17:21.063Z,11.27
2023-02-02T18:19:22.565Z,6.72
2023-02-02T18:21:26.418Z,8.90
2023-02-02T18:23:28.395Z,9.85
2023-02-02T18:25:29.878Z,9.20
2023-02-02T18:27:31.603Z,9.80
2023-02-02T18:29:33.119Z,11.77
2023-02-02T18:31:34.631Z,9.65
2023-02-02T18:33:37.212Z,10.70
2023-02-02T18:35:42.564Z,7.97
2023-02-02T18:37:44.028Z,9.52
2023-02-02T18:39:45.511Z,11.95
2023-02-02T18:41:46.971Z,9.02
2023-02-02T18:43:48.516Z,10.55
2023-02-02T18:46:13.459Z,8.15
2023-02-02T18:48:16.186Z,9.75
2023-02-02T18:50:17.708Z,5.88
2023-02-02T18:52:19.687Z,8.88
2023-02-02T18:54:22.296Z,6.75
2023-02-02T18:56:23.765Z,6.53
2023-02-02T18:58:27.550Z,12.98
2023-02-02T19:00:29.062Z,7.60
2023-02-02T19:02:30.596Z,10.00
2023-02-02T19:04:32.252Z,14.43
2023-02-02T19:06:52.185Z,6.55
2023-02-02T19:08:54.771Z,10.32
2023-02-02T19:11:01.968Z,8.32
2023-02-02T19:13:19.444Z,6.38
2023-02-02T19:15:21.158Z,7.05
2023-02-02T19:17:27.974Z,8.75
2023-02-02T19:19:33.432Z,9.63
2023-02-02T19:21:34.904Z,10.68
2023-02-02T19:23:37.863Z,10.50
2023-02-02T19:25:46.272Z,9.18
2023-02-02T19:27:48.068Z,9.20
2023-02-02T19:29:52.875Z,10.57
2023-02-02T19:32:04.987Z,9.63
2023-02-02T19:34:12.369Z,11.77
2023-02-02T19:36:20.310Z,11.63
2023-02-02T19:38:22.737Z,10.77
2023-02-02T19:40:27.826Z,11.38
2023-02-02T19:42:29.513Z,12.27
2023-02-02T19:44:34.092Z,8.32
2023-02-02T19:46:42.326Z,15.60
2023-02-02T19:48:44.028Z,6.03
2023-02-02T19:50:46.551Z,9.05
2023-02-02T19:52:51.856Z,7.05
2023-02-02T19:54:53.941Z,9.80
2023-02-02T19:57:01.015Z,8.43
2023-02-02T19:59:02.683Z,9.05
2023-02-02T20:01:17.436Z,11.40
2023-02-02T20:03:20.636Z,6.70
2023-02-02T20:05:44.883Z,12.20
2023-02-02T20:07:48.050Z,9.05
2023-02-02T20:09:50.270Z,10.23
2023-02-02T20:11:53.167Z,9.45
2023-02-02T20:13:54.631Z,9.35
2023-02-02T20:16:03.566Z,8.23
2023-02-02T20:18:13.840Z,9.02
2023-02-02T20:20:26.382Z,9.18
2023-02-02T20:22:29.725Z,10.68
2023-02-02T20:24:36.879Z,8.80
2023-02-02T20:26:39.310Z,8.70
2023-02-02T20:28:45.403Z,9.82
2023-02-02T20:30:46.971Z,10.55
2023-02-02T20:32:55.054Z,8.98
2023-02-02T20:34:59.328Z,8.18
2023-02-02T20:37:12.750Z,8.65
2023-02-02T20:39:26.422Z,8.85
2023-02-02T20:41:27.941Z,9.23
2023-02-02T20:43:29.393Z,8.80
2023-02-02T20:45:30.870Z,13.40
2023-02-02T20:47:32.610Z,10.75
2023-02-02T20:49:35.146Z,11.13
2023-02-02T20:51:40.535Z,8.68
2023-02-02T20:53:42.017Z,9.40
2023-02-02T20:55:44.874Z,9.00
2023-02-02T20:57:46.416Z,9.38
2023-02-02T20:59:48.029Z,11.55
2023-02-02T21:01:50.513Z,9.77
2023-02-02T21:03:52.168Z,10.43
2023-02-02T21:05:53.730Z,9.88
2023-02-02T21:07:55.440Z,12.38
2023-02-02T21:09:56.939Z,11.15
2023-02-02T21:11:58.407Z,11.00
2023-02-02T21:14:00.019Z,11.43
2023-02-02T21:16:01.530Z,12.40
2023-02-02T21:18:03.022Z,11.95
2023-02-02T21:20:05.084Z,12.63
2023-02-02T21:22:06.553Z,14.40
2023-02-02T21:24:08.139Z,14.25
2023-02-02T21:26:09.623Z,14.23
2023-02-02T21:28:11.206Z,15.95
2023-02-02T21:30:14.092Z,15.55
2023-02-02T21:32:15.695Z,15.68
2023-02-02T21:34:20.837Z,16.02
2023-02-02T21:36:45.577Z,16.55
2023-02-02T21:38:47.135Z,26.20
2023-02-02T21:40:49.969Z,16.90
2023-02-02T21:42:51.418Z,14.45
2023-02-02T21:45:25.308Z,19.63
2023-02-02T21:47:40.168Z,16.33
2023-02-02T21:49:41.684Z,13.30
2023-02-02T21:51:43.256Z,15.02
2023-02-02T21:53:44.960Z,13.90
2023-02-02T21:55:59.438Z,14.10
2023-02-02T21:58:19.006Z,12.60
2023-02-02T22:00:25.783Z,13.20
2023-02-02T22:02:38.912Z,13.30
2023-02-02T22:04:40.448Z,14.68
2023-02-02T22:06:45.967Z,12.82
2023-02-02T22:08:48.863Z,13.23
2023-02-02T22:10:50.403Z,19.17
2023-02-02T22:12:51.877Z,14.25
2023-02-02T22:14:59.460Z,11.43
2023-02-02T22:17:00.961Z,14.15
2023-02-02T22:19:11.882Z,13.50
2023-02-02T22:21:16.101Z,13.32
2023-02-02T22:23:22.214Z,11.43
2023-02-02T22:25:30.201Z,16.65
2023-02-02T22:27:55.431Z,14.23
2023-02-02T22:30:02.399Z,11.32
2023-02-02T22:32:03.905Z,12.70
2023-02-02T22:34:05.906Z,12.35
2023-02-02T22:36:07.765Z,11.23
2023-02-02T22:38:10.213Z,16.38
2023-02-02T22:40:12.416Z,14.02
2023-02-02T22:42:13.894Z,12.13
2023-02-02T22:44:15.369Z,14.77
2023-02-02T22:46:16.913Z,12.02
2023-02-02T22:48:18.856Z,9.40
2023-02-02T22:50:31.224Z,14.93
2023-02-02T22:52:32.680Z,11.80
2023-02-02T22:54:34.201Z,12.93
2023-02-02T22:56:35.640Z,12.88
2023-02-02T22:58:37.152Z,10.85
2023-02-02T23:00:38.678Z,15.18
2023-02-02T23:02:41.316Z,10.52
2023-02-02T23:04:42.787Z,16.42
2023-02-02T23:06:44.234Z,10.60
2023-02-02T23:08:46.064Z,10.18
2023-02-02T23:10:47.610Z,13.48
2023-02-02T23:12:49.995Z,12.07
2023-02-02T23:14:51.456Z,8.70
2023-02-02T23:16:52.920Z,16.58
2023-02-02T23:18:54.402Z,13.57
2023-02-02T23:20:55.834Z,11.15
2023-02-02T23:22:57.381Z,11.43
2023-02-02T23:24:59.096Z,10.30
2023-02-02T23:27:00.668Z,9.32
2023-02-02T23:29:02.214Z,11.95
2023-02-02T23:31:03.862Z,10.65
2023-02-02T23:33:05.371Z,11.80
2023-02-02T23:35:10.341Z,10.77
2023-02-02T23:37:12.276Z,12.05
2023-02-02T23:39:13.803Z,11.73
2023-02-02T23:41:15.253Z,11.02
2023-02-02T23:43:16.749Z,8.48
2023-02-02T23:45:18.283Z,13.57
2023-02-02T23:47:19.828Z,9.25
2023-02-02T23:49:21.580Z,17.50
2023-02-02T23:51:23.306Z,10.82
2023-02-02T23:53:24.977Z,9.00
2023-02-02T23:55:26.749Z,10.05
2023-02-02T23:57:28.445Z,9.00
2023-02-02T23:59:30.214Z,9.63
